< Cyclone 199910 1999 Season Cyclone 199912 >
Cyclone 199911 (ELAINE)
General InformationTrack Information on Google MapsDetailed Wind InformationList of All Images || ResourceGoogle EarthGE AnimationAtom FeedGeoJSON
Detalied Best Track (Time Zone = UTC)
Year Month Day Hour Lat. Long. Pressure (hPa) Wind (kt) Class Image Chart
1999 3 15 01 -13.0 117.5 1002 23 2 Image --
1999 3 15 04 -13.1 117.2 1002 23 2 Image --
1999 3 15 07 -13.1 117.0 1000 27 2 Image --
1999 3 15 10 -13.2 116.7 1000 27 2 Image --
1999 3 15 16 -13.5 116.2 1000 27 2 Image --
1999 3 16 01 -13.9 115.8 995 35 3 Image --
1999 3 16 04 -14.0 115.6 995 35 3 Image --
1999 3 16 07 -14.1 115.4 990 41 3 Image --
1999 3 16 10 -14.3 115.1 990 41 3 Image --
1999 3 16 13 -14.6 114.7 985 49 4 Image --
1999 3 16 16 -14.8 114.2 980 54 4 Image --
1999 3 16 19 -15.0 113.7 980 54 4 Image --
1999 3 16 22 -15.3 113.2 975 60 4 Image --
1999 3 17 01 -15.6 112.7 970 64 5 Image --
1999 3 17 04 -15.9 112.4 965 70 5 Image --
1999 3 17 07 -16.3 112.0 965 70 5 Image --
1999 3 17 10 -16.7 111.7 965 70 5 Image --
1999 3 17 13 -17.1 111.5 960 76 5 Image --
1999 3 17 16 -17.5 111.3 960 76 5 Image --
1999 3 17 19 -17.9 111.1 955 80 5 Image --
1999 3 17 22 -18.4 110.9 950 84 5 Image --
1999 3 18 01 -18.8 110.8 945 89 5 Image --
1999 3 18 04 -19.2 110.8 945 89 5 Image --
1999 3 18 07 -19.7 110.8 945 89 5 Image --
1999 3 18 10 -20.2 110.9 945 89 5 Image --
1999 3 18 13 -20.8 111.0 950 84 5 Image --
1999 3 18 16 -21.4 111.0 955 80 5 Image --
1999 3 18 19 -22.0 111.0 955 80 5 Image --
1999 3 18 22 -22.6 111.1 965 70 5 Image --
1999 3 19 01 -23.2 111.1 970 64 5 Image --
1999 3 19 04 -23.6 111.2 975 60 4 Image --
1999 3 19 07 -24.2 111.3 975 60 4 Image --
1999 3 19 10 -24.7 111.5 980 54 4 Image --
1999 3 19 13 -25.3 111.8 980 54 4 Image --
1999 3 19 16 -26.0 112.2 985 49 4 Image --
1999 3 19 19 -26.7 112.8 990 41 3 Image --
1999 3 19 22 -27.4 113.5 995 35 3 Image --
1999 3 20 01 -28.1 114.2 997 31 2 Image --
1999 3 20 04 -28.6 115.0 997 31 2 Image --
1999 3 20 07 -28.8 115.9 997 31 2 Image --
1999 3 20 10 -28.8 117.0 998 29 2 Image --
< Cyclone 199910 1999 Season Cyclone 199912 >

Help